createdAt,value
2019-02-18T00:04:13.709Z,26.93
2019-02-18T00:09:06.456Z,22.60
2019-02-18T00:13:58.951Z,16.93
2019-02-18T00:18:51.485Z,16.13
2019-02-18T00:23:44.279Z,13.60
2019-02-18T00:28:37.068Z,9.40
2019-02-18T00:33:29.912Z,12.97
2019-02-18T00:38:22.401Z,12.00
2019-02-18T00:43:14.671Z,14.07
2019-02-18T00:48:07.313Z,9.93
2019-02-18T00:52:59.951Z,8.37
2019-02-18T00:57:52.684Z,12.13
2019-02-18T01:02:45.118Z,9.57
2019-02-18T01:07:37.764Z,8.93
2019-02-18T01:12:30.181Z,10.17
2019-02-18T01:17:22.563Z,9.93
2019-02-18T01:22:14.932Z,9.20
2019-02-18T01:27:07.400Z,8.83
2019-02-18T01:32:00.083Z,8.60
2019-02-18T01:36:52.766Z,10.10
2019-02-18T01:41:45.477Z,8.97
2019-02-18T01:46:37.912Z,9.87
2019-02-18T01:51:30.497Z,11.93
2019-02-18T01:56:22.829Z,11.17
2019-02-18T02:01:15.373Z,9.43
2019-02-18T02:06:08.018Z,9.03
2019-02-18T02:11:00.692Z,8.83
2019-02-18T02:15:53.400Z,9.87
2019-02-18T02:20:46.093Z,10.87
2019-02-18T02:25:38.973Z,12.50
2019-02-18T02:30:31.692Z,10.60
2019-02-18T02:35:23.967Z,10.23
2019-02-18T02:40:16.370Z,10.27
2019-02-18T02:45:09.340Z,9.67
2019-02-18T02:50:01.649Z,9.20
2019-02-18T02:54:54.171Z,9.73
2019-02-18T02:59:46.958Z,9.13
2019-02-18T03:04:39.574Z,9.10
2019-02-18T03:09:32.254Z,9.80
2019-02-18T03:14:24.520Z,9.60
2019-02-18T03:19:17.398Z,9.57
2019-02-18T03:24:09.836Z,9.93
2019-02-18T03:29:17.324Z,9.37
2019-02-18T03:34:12.681Z,26.70
2019-02-18T03:39:06.549Z,13.67
2019-02-18T03:43:58.555Z,11.67
2019-02-18T03:48:50.820Z,10.97
2019-02-18T03:53:42.901Z,9.83
2019-02-18T03:58:35.803Z,10.23
2019-02-18T04:03:28.365Z,10.17
2019-02-18T04:08:20.844Z,10.23
2019-02-18T04:13:13.438Z,10.70
2019-02-18T04:18:06.005Z,11.73
2019-02-18T04:22:58.685Z,12.03
2019-02-18T04:27:51.429Z,11.90
2019-02-18T04:32:43.938Z,11.83
2019-02-18T04:37:36.380Z,12.00
2019-02-18T04:42:28.680Z,22.13
2019-02-18T04:47:21.192Z,19.80
2019-02-18T04:52:13.691Z,13.53
2019-02-18T04:57:06.385Z,13.57
2019-02-18T05:01:58.981Z,14.53
2019-02-18T05:06:51.638Z,17.70
2019-02-18T05:11:44.247Z,11.70
2019-02-18T05:16:36.718Z,18.70
2019-02-18T05:21:29.357Z,17.00
2019-02-18T05:26:21.941Z,24.43
2019-02-18T05:31:14.717Z,27.53
2019-02-18T05:36:07.182Z,25.90
2019-02-18T05:41:00.119Z,24.20
2019-02-18T05:45:53.154Z,27.47
2019-02-18T05:50:45.757Z,23.87
2019-02-18T05:55:38.413Z,21.37
2019-02-18T06:00:30.758Z,19.67
2019-02-18T06:05:23.124Z,17.87
2019-02-18T06:10:17.127Z,18.20
2019-02-18T06:15:10.541Z,23.60
2019-02-18T06:20:03.357Z,18.03
2019-02-18T06:25:15.426Z,16.67
2019-02-18T06:30:10.428Z,16.60
2019-02-18T06:35:02.865Z,16.17
2019-02-18T06:39:55.329Z,15.50
2019-02-18T06:44:49.526Z,17.80
2019-02-18T06:49:41.740Z,15.47
2019-02-18T06:54:34.194Z,19.60
2019-02-18T06:59:28.590Z,19.00
2019-02-18T07:04:28.460Z,18.90
2019-02-18T07:09:24.951Z,16.43
2019-02-18T07:14:17.780Z,17.30
2019-02-18T07:19:10.182Z,18.27
2019-02-18T07:24:02.968Z,22.77
2019-02-18T07:28:55.504Z,26.97
2019-02-18T07:33:47.964Z,27.83
2019-02-18T07:38:40.601Z,27.15
2019-02-18T07:43:32.837Z,25.92
2019-02-18T07:48:25.256Z,26.68
2019-02-18T07:53:18.069Z,25.15
2019-02-18T07:58:10.401Z,25.23
2019-02-18T08:03:02.806Z,22.82
2019-02-18T08:07:55.413Z,22.37
2019-02-18T08:12:47.687Z,27.70
2019-02-18T08:17:40.216Z,23.77
2019-02-18T08:22:32.609Z,28.12
2019-02-18T08:27:25.461Z,32.28
2019-02-18T08:32:18.069Z,32.85
2019-02-18T08:37:10.544Z,28.55
2019-02-18T08:42:03.345Z,24.70
2019-02-18T08:46:55.659Z,27.95
2019-02-18T08:51:48.006Z,25.88
2019-02-18T08:56:40.551Z,26.62
2019-02-18T09:01:33.309Z,32.53
2019-02-18T09:06:26.022Z,33.13
2019-02-18T09:11:18.314Z,23.07
2019-02-18T09:16:10.776Z,22.02
2019-02-18T09:21:03.298Z,20.60
2019-02-18T09:25:55.841Z,20.50
2019-02-18T09:30:49.952Z,20.20
2019-02-18T09:35:42.557Z,19.23
2019-02-18T09:40:44.198Z,20.32
2019-02-18T09:45:29.289Z,19.35
2019-02-18T09:50:21.790Z,17.90
2019-02-18T09:55:14.464Z,19.27
2019-02-18T10:00:11.924Z,16.02
2019-02-18T10:05:04.710Z,15.10
2019-02-18T10:09:57.370Z,14.38
2019-02-18T10:14:50.174Z,12.75
2019-02-18T10:19:43.167Z,16.73
2019-02-18T10:24:35.750Z,17.52
2019-02-18T10:29:28.057Z,23.00
2019-02-18T10:34:20.489Z,9.65
2019-02-18T10:39:13.050Z,10.20
2019-02-18T10:44:05.526Z,5.78
2019-02-18T10:48:58.024Z,11.63
2019-02-18T10:53:50.570Z,8.15
2019-02-18T10:58:43.529Z,6.40
2019-02-18T11:03:36.040Z,6.00
2019-02-18T11:08:28.384Z,4.97
2019-02-18T11:13:20.825Z,7.70
2019-02-18T11:18:13.641Z,4.25
2019-02-18T11:23:06.174Z,5.05
2019-02-18T11:27:58.853Z,5.12
2019-02-18T11:32:51.505Z,5.20
2019-02-18T11:37:44.027Z,5.58
2019-02-18T11:42:37.470Z,4.08
2019-02-18T11:47:29.882Z,3.85
2019-02-18T11:52:22.365Z,3.65
2019-02-18T11:57:15.041Z,4.47
2019-02-18T12:02:07.392Z,5.28
2019-02-18T12:07:00.503Z,5.33
2019-02-18T12:11:52.968Z,7.50
2019-02-18T12:16:45.597Z,5.33
2019-02-18T12:21:37.769Z,10.88
2019-02-18T12:26:30.408Z,12.90
2019-02-18T12:31:23.018Z,8.13
2019-02-18T12:36:15.578Z,3.33
2019-02-18T12:41:08.246Z,3.20
2019-02-18T12:46:00.661Z,2.95
2019-02-18T12:50:53.081Z,3.58
2019-02-18T12:55:45.421Z,3.10
2019-02-18T13:00:37.910Z,3.10
2019-02-18T13:05:30.713Z,2.42
2019-02-18T13:10:23.255Z,2.52
2019-02-18T13:15:17.497Z,2.77
2019-02-18T13:20:09.857Z,2.80
2019-02-18T13:25:02.328Z,3.30
2019-02-18T13:29:54.688Z,3.10
2019-02-18T13:34:47.737Z,2.90
2019-02-18T13:39:40.205Z,3.92
2019-02-18T13:44:32.484Z,3.67
2019-02-18T13:49:24.956Z,4.10
2019-02-18T13:54:17.624Z,3.47
2019-02-18T13:59:10.512Z,3.35
2019-02-18T14:04:03.225Z,5.78
2019-02-18T14:08:55.797Z,23.00
2019-02-18T14:13:48.658Z,3.60
2019-02-18T14:18:41.525Z,4.90
2019-02-18T14:23:34.036Z,3.52
2019-02-18T14:28:26.648Z,3.30
2019-02-18T14:33:19.926Z,3.47
2019-02-18T14:38:12.473Z,3.83
2019-02-18T14:43:05.169Z,2.72
2019-02-18T14:47:57.617Z,3.40
2019-02-18T14:52:51.293Z,3.40
2019-02-18T14:57:43.840Z,3.50
2019-02-18T15:02:36.434Z,3.02
2019-02-18T15:07:28.709Z,2.60
2019-02-18T15:12:22.376Z,2.72
2019-02-18T15:17:15.036Z,2.80
2019-02-18T15:22:07.516Z,3.22
2019-02-18T15:27:00.232Z,3.08
2019-02-18T15:31:55.937Z,4.30
2019-02-18T15:36:48.536Z,3.02
2019-02-18T15:41:41.141Z,3.37
2019-02-18T15:46:33.919Z,4.10
2019-02-18T15:51:26.642Z,5.15
2019-02-18T15:56:19.530Z,7.97
2019-02-18T16:01:11.945Z,6.12
2019-02-18T16:06:04.746Z,6.20
2019-02-18T16:10:58.048Z,7.75
2019-02-18T16:15:50.542Z,6.25
2019-02-18T16:20:42.930Z,6.20
2019-02-18T16:25:35.485Z,4.20
2019-02-18T16:30:28.466Z,4.50
2019-02-18T16:35:21.276Z,4.70
2019-02-18T16:40:16.248Z,3.80
2019-02-18T16:45:11.763Z,3.77
2019-02-18T16:50:05.798Z,5.42
2019-02-18T16:54:58.340Z,4.50
2019-02-18T16:59:51.060Z,5.28
2019-02-18T17:04:43.792Z,5.50
2019-02-18T17:09:36.464Z,6.22
2019-02-18T17:14:29.017Z,6.70
2019-02-18T17:19:21.405Z,6.12
2019-02-18T17:24:13.892Z,6.53
2019-02-18T17:29:06.437Z,10.63
2019-02-18T17:33:59.333Z,8.80
2019-02-18T17:38:51.881Z,10.88
2019-02-18T17:43:44.244Z,16.35
2019-02-18T17:48:38.132Z,22.40
2019-02-18T17:53:30.695Z,101.37
2019-02-18T17:58:23.188Z,38.50
2019-02-18T18:03:15.977Z,17.43
2019-02-18T18:08:09.001Z,15.27
2019-02-18T18:13:01.365Z,18.43
2019-02-18T18:17:53.930Z,15.50
2019-02-18T18:22:46.486Z,13.77
2019-02-18T18:27:39.389Z,13.87
2019-02-18T18:32:32.041Z,11.50
2019-02-18T18:37:24.634Z,13.53
2019-02-18T18:42:16.957Z,24.33
2019-02-18T18:47:09.701Z,18.43
2019-02-18T18:52:02.173Z,21.30
2019-02-18T18:56:55.016Z,17.33
2019-02-18T19:01:48.385Z,14.40
2019-02-18T19:06:41.164Z,12.83
2019-02-18T19:11:33.250Z,11.57
2019-02-18T19:16:25.629Z,12.97
2019-02-18T19:21:18.222Z,12.00
2019-02-18T19:26:10.481Z,13.83
2019-02-18T19:31:03.002Z,15.03
2019-02-18T19:35:55.688Z,11.87
2019-02-18T19:40:48.431Z,11.80
2019-02-18T19:45:40.790Z,14.17
2019-02-18T19:50:33.314Z,13.87
2019-02-18T19:55:26.067Z,16.73
2019-02-18T20:00:19.930Z,13.40
2019-02-18T20:05:12.468Z,13.33
2019-02-18T20:10:07.661Z,10.30
2019-02-18T20:15:00.309Z,10.10
2019-02-18T20:19:54.413Z,12.40
2019-02-18T20:24:47.033Z,14.07
2019-02-18T20:29:48.514Z,14.57
2019-02-18T20:34:41.131Z,14.40
2019-02-18T20:39:33.503Z,17.23
2019-02-18T20:44:25.877Z,25.17
2019-02-18T20:49:18.583Z,21.70
2019-02-18T20:54:11.489Z,34.40
2019-02-18T20:59:04.089Z,18.83
2019-02-18T21:03:56.430Z,16.30
2019-02-18T21:08:48.893Z,18.90
2019-02-18T21:13:42.006Z,19.17
2019-02-18T21:18:34.466Z,20.43
2019-02-18T21:23:26.648Z,15.83
2019-02-18T21:28:19.137Z,15.60
2019-02-18T21:33:12.221Z,23.73
2019-02-18T21:38:04.794Z,21.70
2019-02-18T21:42:58.333Z,27.57
2019-02-18T21:47:50.988Z,17.80
2019-02-18T21:52:43.609Z,25.43
2019-02-18T21:57:36.076Z,13.53
2019-02-18T22:02:28.837Z,22.20
2019-02-18T22:07:21.502Z,20.47
2019-02-18T22:12:14.376Z,26.80
2019-02-18T22:17:06.757Z,18.57
2019-02-18T22:21:59.125Z,20.53
2019-02-18T22:26:51.747Z,29.40
2019-02-18T22:31:44.465Z,36.97
2019-02-18T22:36:37.026Z,46.70
2019-02-18T22:41:29.608Z,36.37
2019-02-18T22:46:22.194Z,27.10
2019-02-18T22:51:14.946Z,20.13
2019-02-18T22:56:07.698Z,24.00
2019-02-18T23:01:01.005Z,24.63
2019-02-18T23:05:53.684Z,23.37
2019-02-18T23:10:45.969Z,22.37
2019-02-18T23:15:38.857Z,43.33
2019-02-18T23:20:31.581Z,46.13
2019-02-18T23:25:24.376Z,28.83
2019-02-18T23:30:17.117Z,31.60
2019-02-18T23:35:09.863Z,32.53
2019-02-18T23:40:02.173Z,31.00
2019-02-18T23:44:59.361Z,35.43
2019-02-18T23:49:48.612Z,38.83
2019-02-18T23:54:41.341Z,36.87
2019-02-18T23:59:33.853Z,40.23
